createdAt,value
2023-05-24T00:01:02.973Z,99.90
2023-05-24T00:03:35.048Z,99.90
2023-05-24T00:06:03.905Z,99.90
2023-05-24T00:08:31.951Z,99.90
2023-05-24T00:11:00.057Z,99.90
2023-05-24T00:13:29.442Z,99.90
2023-05-24T00:15:57.941Z,99.90
2023-05-24T00:18:26.271Z,99.90
2023-05-24T00:20:57.205Z,99.90
2023-05-24T00:23:26.436Z,99.90
2023-05-24T00:25:55.073Z,99.90
2023-05-24T00:28:23.081Z,99.90
2023-05-24T00:30:52.734Z,99.90
2023-05-24T00:33:23.300Z,99.90
2023-05-24T00:35:54.475Z,99.90
2023-05-24T00:38:22.724Z,99.90
2023-05-24T00:40:56.421Z,99.90
2023-05-24T00:43:25.049Z,99.90
2023-05-24T00:46:13.716Z,99.90
2023-05-24T00:48:42.056Z,99.90
2023-05-24T00:51:10.523Z,99.90
2023-05-24T00:53:39.121Z,99.90
2023-05-24T00:56:08.437Z,99.90
2023-05-24T00:58:37.000Z,99.90
2023-05-24T01:01:07.032Z,99.90
2023-05-24T01:03:36.445Z,99.90
2023-05-24T01:06:08.225Z,99.90
2023-05-24T01:08:47.620Z,99.90
2023-05-24T01:11:26.337Z,99.90
2023-05-24T01:14:05.097Z,99.90
2023-05-24T01:16:46.655Z,99.90
2023-05-24T01:19:33.835Z,99.90
2023-05-24T01:22:12.422Z,99.90
2023-05-24T01:24:48.759Z,99.90
2023-05-24T01:27:19.303Z,99.90
2023-05-24T01:29:53.342Z,99.90
2023-05-24T01:32:21.751Z,99.90
2023-05-24T01:34:49.796Z,99.90
2023-05-24T01:37:19.339Z,99.90
2023-05-24T01:39:48.499Z,99.90
2023-05-24T01:42:27.069Z,99.90
2023-05-24T01:45:06.250Z,99.90
2023-05-24T01:47:55.777Z,99.90
2023-05-24T01:50:28.183Z,99.90
2023-05-24T01:52:59.581Z,99.90
2023-05-24T01:55:28.681Z,99.90
2023-05-24T01:58:03.038Z,99.90
2023-05-24T02:00:33.719Z,99.90
2023-05-24T02:03:03.302Z,99.90
2023-05-24T02:05:33.870Z,99.90
2023-05-24T02:08:07.152Z,99.90
2023-05-24T02:10:35.444Z,99.90
2023-05-24T02:13:04.933Z,99.90
2023-05-24T02:15:33.233Z,99.90
2023-05-24T02:18:01.840Z,99.90
2023-05-24T02:20:31.900Z,99.90
2023-05-24T02:23:01.023Z,99.90
2023-05-24T02:25:29.113Z,99.90
2023-05-24T02:27:57.164Z,99.90
2023-05-24T02:30:27.216Z,99.90
2023-05-24T02:32:56.201Z,99.90
2023-05-24T02:35:24.793Z,99.90
2023-05-24T02:37:52.855Z,99.90
2023-05-24T02:40:21.021Z,99.90
2023-05-24T02:42:49.099Z,99.90
2023-05-24T02:45:17.165Z,99.90
2023-05-24T02:47:46.876Z,99.90
2023-05-24T02:50:15.001Z,99.90
2023-05-24T02:52:43.044Z,99.90
2023-05-24T02:55:11.343Z,99.90
2023-05-24T02:57:40.018Z,99.90
2023-05-24T03:00:09.616Z,99.90
2023-05-24T03:02:38.908Z,99.90
2023-05-24T03:05:09.406Z,99.90
2023-05-24T03:07:37.743Z,99.90
2023-05-24T03:10:08.286Z,99.90
2023-05-24T03:12:36.393Z,99.90
2023-05-24T03:15:04.953Z,99.90
2023-05-24T03:17:33.192Z,99.90
2023-05-24T03:20:02.149Z,99.90
2023-05-24T03:22:33.908Z,99.90
2023-05-24T03:25:03.988Z,99.90
2023-05-24T03:27:35.313Z,99.90
2023-05-24T03:30:06.550Z,99.90
2023-05-24T03:32:41.130Z,99.90
2023-05-24T03:35:12.083Z,99.90
2023-05-24T03:37:41.846Z,99.90
2023-05-24T03:40:10.577Z,99.90
2023-05-24T03:42:50.546Z,99.90
2023-05-24T03:45:34.597Z,99.90
2023-05-24T03:48:07.512Z,99.90
2023-05-24T03:50:36.054Z,99.90
2023-05-24T03:53:05.871Z,99.90
2023-05-24T03:55:34.023Z,99.90
2023-05-24T03:58:02.582Z,99.90
2023-05-24T04:00:30.795Z,99.90
2023-05-24T04:03:00.246Z,99.90
2023-05-24T04:05:30.084Z,99.90
2023-05-24T04:07:58.539Z,99.90
2023-05-24T04:10:28.034Z,99.90
2023-05-24T04:12:57.229Z,99.90
2023-05-24T04:15:25.586Z,99.90
2023-05-24T04:17:55.249Z,99.90
2023-05-24T04:20:25.723Z,99.90
2023-05-24T04:22:54.076Z,99.90
2023-05-24T04:25:22.604Z,99.90
2023-05-24T04:27:52.143Z,99.90
2023-05-24T04:30:21.384Z,99.90
2023-05-24T04:32:49.702Z,99.90
2023-05-24T04:35:17.895Z,99.90
2023-05-24T04:37:46.723Z,99.90
2023-05-24T04:40:16.407Z,99.90
2023-05-24T04:42:44.492Z,99.90
2023-05-24T04:45:14.117Z,99.90
2023-05-24T04:47:43.080Z,99.90
2023-05-24T04:50:11.941Z,99.90
2023-05-24T04:52:39.962Z,99.90
2023-05-24T04:55:08.843Z,99.90
2023-05-24T04:57:36.929Z,99.90
2023-05-24T05:00:07.467Z,99.90
2023-05-24T05:02:37.042Z,99.90
2023-05-24T05:05:05.753Z,99.90
2023-05-24T05:07:33.909Z,99.90
2023-05-24T05:10:02.126Z,99.90
2023-05-24T05:12:30.231Z,99.90
2023-05-24T05:14:59.013Z,99.90
2023-05-24T05:17:27.109Z,99.90
2023-05-24T05:19:56.934Z,99.90
2023-05-24T05:22:25.033Z,99.90
2023-05-24T05:24:53.210Z,99.90
2023-05-24T05:27:21.293Z,99.90
2023-05-24T05:29:49.355Z,99.90
2023-05-24T05:32:17.682Z,99.90
2023-05-24T05:34:45.928Z,99.90
2023-05-24T05:37:15.370Z,99.90
2023-05-24T05:39:43.435Z,99.90
2023-05-24T05:42:11.520Z,99.90
2023-05-24T05:44:39.844Z,99.90
2023-05-24T05:47:09.529Z,99.90
2023-05-24T05:49:37.649Z,99.90
2023-05-24T05:52:06.860Z,99.90
2023-05-24T05:54:36.217Z,99.90
2023-05-24T05:57:04.498Z,99.90
2023-05-24T05:59:36.016Z,99.90
2023-05-24T06:02:04.238Z,99.90
2023-05-24T06:04:32.485Z,99.90
2023-05-24T06:07:00.781Z,99.90
2023-05-24T06:09:28.788Z,99.90
2023-05-24T06:11:59.170Z,99.90
2023-05-24T06:14:27.269Z,99.90
2023-05-24T06:16:56.279Z,99.90
2023-05-24T06:19:27.152Z,99.90
2023-05-24T06:21:55.268Z,99.90
2023-05-24T06:24:23.384Z,99.90
2023-05-24T06:26:53.045Z,99.90
2023-05-24T06:29:22.973Z,99.90
2023-05-24T06:31:51.593Z,99.90
2023-05-24T06:34:21.432Z,99.90
2023-05-24T06:36:51.628Z,99.90
2023-05-24T06:39:20.960Z,99.90
2023-05-24T06:41:51.323Z,99.90
2023-05-24T06:44:32.116Z,99.90
2023-05-24T06:47:00.339Z,99.90
2023-05-24T06:49:29.013Z,99.90
2023-05-24T06:51:57.087Z,99.90
2023-05-24T06:54:25.673Z,99.90
2023-05-24T06:56:53.722Z,99.90
2023-05-24T06:59:21.927Z,99.90
2023-05-24T07:01:57.833Z,99.90
2023-05-24T07:04:28.439Z,99.90
2023-05-24T07:06:57.456Z,99.90
2023-05-24T07:09:25.536Z,99.90
2023-05-24T07:11:54.200Z,99.90
2023-05-24T07:14:23.170Z,99.90
2023-05-24T07:16:55.128Z,99.90
2023-05-24T07:19:23.304Z,99.90
2023-05-24T07:21:52.341Z,99.90
2023-05-24T07:24:22.100Z,99.90
2023-05-24T07:26:50.730Z,99.90
2023-05-24T07:29:18.824Z,99.90
2023-05-24T07:31:48.273Z,99.90
2023-05-24T07:34:20.703Z,99.90
2023-05-24T07:36:49.582Z,99.90
2023-05-24T07:39:17.788Z,99.90
2023-05-24T07:41:47.494Z,99.90
2023-05-24T07:44:15.776Z,99.90
2023-05-24T07:46:43.942Z,99.90
2023-05-24T07:49:12.247Z,99.90
2023-05-24T07:51:41.706Z,99.90
2023-05-24T07:54:09.846Z,99.90
2023-05-24T07:56:37.862Z,99.90
2023-05-24T07:59:06.916Z,99.90
2023-05-24T08:01:36.821Z,99.90
2023-05-24T08:04:05.558Z,99.90
2023-05-24T08:06:34.885Z,99.90
2023-05-24T08:09:05.351Z,99.90
2023-05-24T08:11:33.423Z,99.90
2023-05-24T08:14:01.629Z,99.90
2023-05-24T08:16:29.816Z,99.90
2023-05-24T08:18:57.858Z,99.90
2023-05-24T08:21:26.230Z,99.90
2023-05-24T08:23:54.365Z,99.90
2023-05-24T08:26:24.436Z,99.90
2023-05-24T08:28:52.708Z,99.90
2023-05-24T08:31:20.805Z,99.90
2023-05-24T08:33:50.487Z,99.90
2023-05-24T08:36:18.740Z,99.90
2023-05-24T08:38:46.939Z,99.90
2023-05-24T08:41:15.004Z,99.90
2023-05-24T08:43:45.163Z,99.90
2023-05-24T08:46:15.270Z,99.90
2023-05-24T08:48:47.000Z,99.90
2023-05-24T08:51:16.622Z,99.90
2023-05-24T08:53:48.533Z,99.90
2023-05-24T08:56:18.368Z,99.90
2023-05-24T08:58:47.847Z,99.90
2023-05-24T09:01:17.669Z,99.90
2023-05-24T09:03:47.559Z,99.90
2023-05-24T09:06:18.898Z,99.90
2023-05-24T09:08:47.350Z,99.90
2023-05-24T09:11:17.056Z,99.90
2023-05-24T09:13:47.069Z,99.90
2023-05-24T09:16:15.992Z,99.90
2023-05-24T09:18:44.204Z,99.90
2023-05-24T09:21:12.723Z,99.90
2023-05-24T09:23:42.562Z,99.90
2023-05-24T09:26:11.782Z,99.90
2023-05-24T09:28:41.795Z,99.90
2023-05-24T09:31:12.382Z,99.90
2023-05-24T09:33:40.873Z,99.90
2023-05-24T09:36:10.165Z,99.90
2023-05-24T09:38:38.305Z,99.90
2023-05-24T09:41:08.365Z,99.90
2023-05-24T09:43:48.586Z,99.90
2023-05-24T09:46:19.795Z,99.90
2023-05-24T09:48:58.583Z,99.90
2023-05-24T09:51:27.791Z,99.90
2023-05-24T09:53:58.724Z,99.90
2023-05-24T09:56:27.593Z,99.90
2023-05-24T09:58:56.716Z,99.90
2023-05-24T10:01:27.039Z,99.90
2023-05-24T10:03:56.331Z,99.90
2023-05-24T10:06:25.001Z,99.90
2023-05-24T10:08:54.860Z,99.90
2023-05-24T10:11:22.917Z,99.90
2023-05-24T10:13:51.168Z,99.90
2023-05-24T10:16:19.313Z,99.90
2023-05-24T10:18:48.714Z,99.90
2023-05-24T10:21:18.770Z,99.90
2023-05-24T10:23:53.651Z,99.90
2023-05-24T10:26:26.259Z,99.90
2023-05-24T10:28:58.942Z,99.90
2023-05-24T10:31:35.551Z,99.90
2023-05-24T10:34:08.915Z,99.90
2023-05-24T10:36:40.357Z,99.90
2023-05-24T10:39:11.980Z,99.90
2023-05-24T10:41:41.912Z,99.90
2023-05-24T10:44:14.168Z,99.90
2023-05-24T10:47:10.462Z,99.90
2023-05-24T10:49:40.926Z,99.90
2023-05-24T10:52:10.155Z,99.90
2023-05-24T10:54:42.902Z,99.90
2023-05-24T10:57:24.515Z,99.90
2023-05-24T10:59:52.798Z,99.90
2023-05-24T11:02:20.833Z,99.90
2023-05-24T11:04:50.548Z,99.90
2023-05-24T11:07:21.039Z,99.90
2023-05-24T11:09:54.261Z,99.90
2023-05-24T11:12:22.688Z,99.90
2023-05-24T11:14:52.698Z,99.90
2023-05-24T11:17:23.129Z,99.90
2023-05-24T11:19:54.142Z,99.90
2023-05-24T11:22:23.617Z,99.90
2023-05-24T11:24:53.527Z,99.90
2023-05-24T11:27:21.964Z,99.90
2023-05-24T11:29:50.406Z,99.90
2023-05-24T11:32:19.689Z,99.90
2023-05-24T11:34:48.431Z,99.90
2023-05-24T11:37:18.965Z,99.90
2023-05-24T11:39:52.621Z,99.90
2023-05-24T11:42:24.302Z,99.90
2023-05-24T11:44:54.397Z,99.90
2023-05-24T11:47:22.979Z,99.90
2023-05-24T11:49:52.402Z,99.90
2023-05-24T11:52:22.183Z,99.90
2023-05-24T11:54:51.820Z,99.90
2023-05-24T11:57:24.732Z,99.90
2023-05-24T11:59:53.350Z,99.90
2023-05-24T12:02:21.567Z,99.90
2023-05-24T12:04:49.796Z,99.90
2023-05-24T12:07:17.958Z,99.90
2023-05-24T12:09:47.457Z,99.70
2023-05-24T12:12:15.686Z,99.90
2023-05-24T12:14:43.775Z,99.90
2023-05-24T12:17:17.206Z,99.90
2023-05-24T12:19:45.517Z,99.20
2023-05-24T12:22:13.628Z,99.90
2023-05-24T12:24:42.350Z,99.50
2023-05-24T12:27:12.666Z,99.90
2023-05-24T12:29:42.652Z,99.90
2023-05-24T12:32:13.886Z,99.90
2023-05-24T12:34:43.405Z,99.90
2023-05-24T12:37:13.647Z,99.90
2023-05-24T12:39:43.620Z,99.80
2023-05-24T12:42:14.406Z,98.50
2023-05-24T12:44:43.026Z,99.20
2023-05-24T12:47:11.807Z,99.80
2023-05-24T12:49:40.283Z,98.80
2023-05-24T12:52:08.541Z,98.30
2023-05-24T12:54:36.743Z,99.20
2023-05-24T12:57:05.703Z,99.80
2023-05-24T12:59:35.673Z,99.20
2023-05-24T13:02:03.798Z,99.60
2023-05-24T13:04:33.797Z,98.80
2023-05-24T13:07:02.882Z,99.50
2023-05-24T13:09:30.912Z,98.50
2023-05-24T13:11:58.964Z,99.50
2023-05-24T13:14:27.368Z,99.90
2023-05-24T13:16:56.721Z,99.30
2023-05-24T13:19:24.818Z,97.70
2023-05-24T13:21:52.914Z,96.30
2023-05-24T13:24:20.980Z,96.90
2023-05-24T13:26:50.096Z,98.40
2023-05-24T13:29:34.339Z,99.40
2023-05-24T13:32:07.197Z,98.80
2023-05-24T13:34:35.230Z,99.90
2023-05-24T13:37:03.414Z,99.90
2023-05-24T13:39:31.561Z,98.70
2023-05-24T13:42:00.975Z,99.20
2023-05-24T13:44:30.704Z,98.80
2023-05-24T13:46:59.353Z,99.10
2023-05-24T13:49:29.215Z,98.10
2023-05-24T13:51:58.630Z,98.90
2023-05-24T13:54:27.791Z,99.90
2023-05-24T13:56:57.541Z,99.80
2023-05-24T13:59:27.118Z,99.40
2023-05-24T14:01:55.398Z,98.00
2023-05-24T14:04:23.573Z,97.60
2023-05-24T14:06:54.219Z,99.10
2023-05-24T14:09:23.614Z,99.30
2023-05-24T14:11:51.922Z,99.90
2023-05-24T14:14:58.606Z,99.60
2023-05-24T14:17:08.411Z,98.60
2023-05-24T14:19:36.597Z,99.00
2023-05-24T14:22:06.459Z,98.00
2023-05-24T14:24:34.629Z,98.00
2023-05-24T14:27:04.582Z,98.80
2023-05-24T14:29:32.601Z,99.00
2023-05-24T14:32:00.715Z,98.90
2023-05-24T14:34:28.723Z,99.90
2023-05-24T14:36:56.842Z,99.30
2023-05-24T14:39:26.346Z,98.90
2023-05-24T14:41:54.649Z,99.90
2023-05-24T14:44:22.891Z,99.90
2023-05-24T14:46:52.017Z,99.90
2023-05-24T14:49:21.324Z,99.90
2023-05-24T14:51:49.704Z,99.90
2023-05-24T14:54:17.885Z,98.90
2023-05-24T14:56:47.313Z,99.10
2023-05-24T14:59:16.077Z,99.10
2023-05-24T15:01:44.166Z,99.90
2023-05-24T15:04:12.377Z,99.90
2023-05-24T15:06:40.518Z,98.50
2023-05-24T15:09:08.812Z,99.70
2023-05-24T15:11:37.800Z,99.90
2023-05-24T15:14:07.276Z,99.90
2023-05-24T15:16:36.400Z,99.90
2023-05-24T15:19:04.555Z,99.60
2023-05-24T15:21:33.321Z,99.90
2023-05-24T15:24:01.374Z,99.90
2023-05-24T15:26:29.435Z,99.60
2023-05-24T15:28:58.206Z,99.90
2023-05-24T15:31:27.737Z,99.90
2023-05-24T15:33:55.853Z,99.90
2023-05-24T15:36:23.998Z,99.90
2023-05-24T15:38:52.041Z,99.90
2023-05-24T15:41:20.273Z,99.90
2023-05-24T15:43:48.325Z,99.90
2023-05-24T15:46:16.647Z,99.90
2023-05-24T15:48:46.091Z,99.90
2023-05-24T15:53:45.552Z,99.90
2023-05-24T15:56:13.978Z,99.90
2023-05-24T15:58:42.026Z,99.70
2023-05-24T16:01:10.316Z,99.90
2023-05-24T16:03:38.614Z,99.90
2023-05-24T16:06:08.426Z,99.70
2023-05-24T16:08:36.587Z,99.50
2023-05-24T16:11:08.176Z,99.80
2023-05-24T16:13:36.356Z,99.90
2023-05-24T16:16:04.708Z,99.90
2023-05-24T16:18:34.604Z,99.30
2023-05-24T16:21:02.971Z,98.70
2023-05-24T16:23:32.365Z,99.10
2023-05-24T16:26:00.707Z,99.20
2023-05-24T16:28:28.867Z,99.60
2023-05-24T16:30:57.565Z,99.60
2023-05-24T16:33:25.927Z,99.90
2023-05-24T16:35:56.317Z,99.90
2023-05-24T16:38:25.485Z,99.90
2023-05-24T16:40:55.099Z,99.90
2023-05-24T16:43:23.631Z,99.90
2023-05-24T16:45:51.914Z,99.90
2023-05-24T16:48:21.795Z,99.90
2023-05-24T16:50:53.876Z,99.90
2023-05-24T16:53:23.115Z,99.90
2023-05-24T16:55:53.815Z,99.90
2023-05-24T16:58:23.981Z,99.90
2023-05-24T17:00:54.450Z,99.90
2023-05-24T17:03:27.888Z,99.90
2023-05-24T17:05:58.890Z,99.90
2023-05-24T17:08:28.514Z,99.90
2023-05-24T17:10:57.119Z,99.90
2023-05-24T17:13:27.617Z,99.90
2023-05-24T17:15:56.178Z,99.90
2023-05-24T17:18:28.997Z,99.90
2023-05-24T17:20:57.771Z,99.90
2023-05-24T17:23:26.952Z,99.90
2023-05-24T17:25:55.908Z,99.90
2023-05-24T17:28:27.339Z,99.90
2023-05-24T17:30:57.856Z,99.90
2023-05-24T17:33:27.902Z,99.90
2023-05-24T17:35:57.276Z,99.90
2023-05-24T17:38:25.777Z,99.90
2023-05-24T17:40:57.066Z,99.90
2023-05-24T17:43:28.867Z,99.90
2023-05-24T17:46:03.454Z,99.90
2023-05-24T17:48:32.334Z,99.90
2023-05-24T17:51:00.895Z,99.90
2023-05-24T17:53:32.199Z,99.90
2023-05-24T17:56:00.742Z,99.90
2023-05-24T17:58:30.744Z,99.90
2023-05-24T18:01:00.498Z,99.90
2023-05-24T18:03:28.617Z,99.90
2023-05-24T18:05:57.237Z,99.90
2023-05-24T18:08:26.029Z,99.90
2023-05-24T18:10:58.727Z,99.90
2023-05-24T18:13:28.092Z,99.90
2023-05-24T18:15:56.958Z,99.90
2023-05-24T18:18:26.561Z,99.90
2023-05-24T18:20:54.655Z,99.90
2023-05-24T18:23:22.882Z,99.90
2023-05-24T18:25:51.064Z,99.90
2023-05-24T18:28:28.738Z,99.90
2023-05-24T18:30:56.871Z,99.90
2023-05-24T18:33:26.473Z,99.90
2023-05-24T18:35:54.689Z,99.90
2023-05-24T18:38:22.904Z,99.90
2023-05-24T18:40:50.961Z,99.90
2023-05-24T18:43:19.197Z,99.90
2023-05-24T18:45:47.310Z,99.90
2023-05-24T18:48:15.333Z,99.90
2023-05-24T18:50:44.849Z,99.90
2023-05-24T18:53:13.358Z,99.90
2023-05-24T18:55:41.706Z,99.90
2023-05-24T18:58:10.198Z,99.90
2023-05-24T19:00:38.409Z,99.90
2023-05-24T19:03:07.668Z,99.90
2023-05-24T19:05:35.842Z,99.90
2023-05-24T19:08:05.227Z,99.90
2023-05-24T19:10:33.295Z,99.90
2023-05-24T19:13:01.870Z,99.90
2023-05-24T19:15:30.050Z,99.90
2023-05-24T19:17:58.401Z,99.90
2023-05-24T19:20:26.789Z,99.90
2023-05-24T19:22:55.299Z,99.90
2023-05-24T19:25:24.787Z,99.90
2023-05-24T19:27:59.214Z,99.90
2023-05-24T19:30:28.570Z,99.90
2023-05-24T19:32:56.847Z,99.90
2023-05-24T19:35:25.084Z,99.90
2023-05-24T19:37:53.807Z,99.90
2023-05-24T19:40:23.790Z,99.90
2023-05-24T19:42:51.841Z,99.90
2023-05-24T19:45:20.061Z,99.90
2023-05-24T19:47:48.194Z,99.90
2023-05-24T19:50:16.251Z,99.90
2023-05-24T19:52:44.321Z,99.90
2023-05-24T19:55:12.372Z,99.90
2023-05-24T19:57:41.780Z,99.90
2023-05-24T20:00:12.386Z,99.90
2023-05-24T20:02:40.467Z,99.90
2023-05-24T20:05:09.998Z,99.90
2023-05-24T20:07:38.009Z,99.90
2023-05-24T20:10:07.529Z,99.90
2023-05-24T20:12:35.538Z,99.90
2023-05-24T20:15:08.299Z,99.90
2023-05-24T20:17:36.381Z,99.90
2023-05-24T20:20:05.090Z,99.90
2023-05-24T20:22:33.288Z,99.90
2023-05-24T20:25:01.321Z,99.90
2023-05-24T20:27:30.034Z,99.90
2023-05-24T20:29:58.089Z,99.90
2023-05-24T20:32:27.535Z,99.90
2023-05-24T20:34:55.643Z,99.90
2023-05-24T20:37:23.791Z,99.90
2023-05-24T20:39:51.923Z,99.90
2023-05-24T20:42:20.037Z,99.90
2023-05-24T20:44:48.174Z,99.90
2023-05-24T20:47:16.773Z,99.90
2023-05-24T20:49:46.178Z,99.90
2023-05-24T20:52:16.206Z,99.90
2023-05-24T20:54:44.396Z,99.90
2023-05-24T20:57:12.445Z,99.90
2023-05-24T20:59:41.169Z,99.90
2023-05-24T21:02:09.235Z,99.90
2023-05-24T21:04:37.314Z,99.90
2023-05-24T21:07:07.915Z,99.90
2023-05-24T21:09:36.304Z,99.90
2023-05-24T21:12:04.472Z,99.90
2023-05-24T21:14:32.734Z,99.90
2023-05-24T21:17:00.915Z,99.90
2023-05-24T21:19:28.967Z,99.90
2023-05-24T21:21:56.967Z,99.90
2023-05-24T21:24:26.522Z,99.90
2023-05-24T21:26:54.527Z,99.90
2023-05-24T21:29:22.615Z,99.90
2023-05-24T21:31:50.755Z,99.90
2023-05-24T21:34:19.100Z,99.90
2023-05-24T21:36:47.317Z,99.90
2023-05-24T21:39:15.406Z,99.90
2023-05-24T21:41:44.779Z,99.90
2023-05-24T21:44:12.813Z,99.90
2023-05-24T21:46:41.088Z,99.90
2023-05-24T21:49:09.204Z,99.90
2023-05-24T21:51:37.930Z,99.90
2023-05-24T21:54:06.499Z,99.90
2023-05-24T21:56:34.586Z,99.90
2023-05-24T21:59:04.065Z,99.90
2023-05-24T22:01:32.162Z,99.90
2023-05-24T22:04:00.515Z,99.90
2023-05-24T22:06:28.788Z,99.90
2023-05-24T22:09:01.628Z,99.90
2023-05-24T22:11:29.964Z,99.90
2023-05-24T22:13:58.148Z,99.90
2023-05-24T22:16:27.885Z,99.90
2023-05-24T22:18:56.838Z,99.90
2023-05-24T22:21:26.254Z,99.90
2023-05-24T22:23:54.788Z,99.90
2023-05-24T22:26:24.361Z,99.90
2023-05-24T22:28:52.974Z,99.90
2023-05-24T22:31:21.688Z,99.90
2023-05-24T22:33:51.149Z,99.90
2023-05-24T22:36:20.922Z,99.90
2023-05-24T22:38:49.120Z,99.90
2023-05-24T22:41:17.159Z,99.90
2023-05-24T22:43:45.281Z,99.90
2023-05-24T22:46:13.414Z,99.90
2023-05-24T22:48:41.575Z,99.90
2023-05-24T22:51:12.293Z,99.90
2023-05-24T22:53:40.598Z,99.90
2023-05-24T22:56:10.496Z,99.90
2023-05-24T22:58:39.040Z,99.90
2023-05-24T23:01:07.343Z,99.90
2023-05-24T23:03:35.731Z,99.90
2023-05-24T23:06:05.626Z,99.90
2023-05-24T23:08:35.754Z,99.90
2023-05-24T23:11:10.215Z,99.90
2023-05-24T23:13:38.746Z,99.90
2023-05-24T23:16:07.305Z,99.90
2023-05-24T23:18:37.502Z,99.90
2023-05-24T23:21:05.824Z,99.90
2023-05-24T23:23:37.573Z,99.90
2023-05-24T23:26:05.687Z,99.90
2023-05-24T23:28:33.948Z,99.90
2023-05-24T23:31:02.009Z,99.90
2023-05-24T23:33:30.109Z,99.90
2023-05-24T23:35:58.239Z,99.90
2023-05-24T23:38:26.393Z,99.90
2023-05-24T23:40:55.799Z,99.90
2023-05-24T23:43:23.983Z,99.90
2023-05-24T23:45:52.515Z,99.90
2023-05-24T23:48:21.362Z,99.90
2023-05-24T23:50:54.374Z,99.90
2023-05-24T23:53:23.027Z,99.90
2023-05-24T23:55:51.115Z,99.90
2023-05-24T23:58:20.694Z,99.90
